Flight Track Log - Related Links

Times and Time Zones

All times are in EDT time to prevent confusion due to time zone crossing. See the SKW5550 flight status page for this flight to view local times or setup timezone preferences in your user account.

Time Position Orientation Groundspeed Altitude Reporting Facility
EDT Latitude Longitude Course Direction KTS MPH feet Rate Location/Type
Tue 09:26:41 AM 44.5411 -108.9914 157° South 208 239 6,200  Level Salt Lake Center
Tue 09:27:42 AM 44.5836 -109.0144 339° North 203 234 8,000 1,869 Climbing Salt Lake Center
Tue 09:28:43 AM 44.6225 -108.9750 36° Northeast 228 262 10,000 1,805 Climbing Salt Lake Center
Tue 09:29:00 AM 44.1490 -108.6828 159° South  Level FlightAware Approximate
Tue 09:29:45 AM 44.5631 -108.9253 149° Southeast 251 289 11,700  Level Salt Lake Center
Tue 09:30:00 AM 44.0531 -108.6304 159° South  Level FlightAware Approximate
Tue 09:30:46 AM 44.4886 -108.8875 160° South 271 312 13,500  Level Salt Lake Center
Tue 09:31:00 AM 43.9574 -108.5779 157° South  Level FlightAware Approximate
Tue 09:31:47 AM 44.3917 -108.8344 159° South 301 346 14,800  Level Salt Lake Center
Tue 09:32:48 AM 44.3008 -108.7814 157° South 338 389 16,500 1,721 Climbing Salt Lake Center
Tue 09:33:49 AM 44.2111 -108.7292 157° South 349 402 18,300 1,623 Climbing Salt Lake Center
Tue 09:34:50 AM 44.1281 -108.6681 152° Southeast 342 394 19,800 1,328 Climbing Salt Lake Center
Tue 09:35:51 AM 44.0481 -108.5911 145° Southeast 349 402 21,000 1,024 Climbing Salt Lake Center
Tue 09:36:53 AM 43.9667 -108.5144 146° Southeast 353 406 21,900 927 Climbing Salt Lake Center
Tue 09:37:54 AM 43.8814 -108.4336 146° Southeast 368 423 22,900 787 Climbing Salt Lake Center
Tue 09:38:55 AM 43.7944 -108.3525 146° Southeast 376 433 23,500 738 Climbing Salt Lake Center
Tue 09:39:56 AM 43.6869 -108.2519 146° Southeast 389 448 24,400 927 Climbing Salt Lake Center
Tue 09:40:58 AM 43.5964 -108.1664 146° Southeast 393 452 25,400 976 Climbing Salt Lake Center
Tue 09:41:59 AM 43.5075 -108.0842 146° Southeast 388 447 26,400 738 Climbing Salt Lake Center
Tue 09:43:00 AM 43.4189 -108.0017 146° Southeast 387 445 26,900 488 Climbing Salt Lake Center
Tue 09:44:02 AM 43.3278 -107.9169 146° Southeast 396 456 27,400 488 Climbing Salt Lake Center
Tue 09:45:03 AM 43.2358 -107.8314 146° Southeast 400 460 27,900 492 Climbing Salt Lake Center
Tue 09:46:04 AM 43.1425 -107.7458 146° Southeast 404 465 28,400 488 Climbing Salt Lake Center
Tue 09:47:06 AM 43.0500 -107.6600 146° Southeast 405 466 28,900 390 Climbing Salt Lake Center
Tue 09:48:07 AM 42.9561 -107.5764 147° Southeast 404 465 29,200 295 Climbing Salt Lake Center
Tue 09:49:08 AM 42.8569 -107.4842 146° Southeast 410 472 29,500 390 Climbing Salt Lake Center
Tue 09:50:10 AM 42.7508 -107.3867 146° Southeast 413 475 30,000 462 Climbing Salt Lake Center
Tue 09:51:05 AM 42.6606 -107.3022 145° Southeast 410 472 30,400 414 Climbing Denver Center
Tue 09:52:06 AM 42.5694 -107.2161 145° Southeast 414 476 30,800 293 Climbing Denver Center
Tue 09:53:08 AM 42.4767 -107.1311 146° Southeast 420 483 31,000 98 Climbing Denver Center
Tue 09:54:09 AM 42.3681 -107.0294 145° Southeast 426 490 31,000  Level Denver Center
Tue 09:55:23 AM 42.2400 -106.9119 146° Southeast 435 501 31,000  Level Denver Center
Tue 09:56:24 AM 42.1461 -106.8239 145° Southeast 432 497 31,000  Level Denver Center
Tue 09:57:26 AM 42.0503 -106.7361 146° Southeast 435 501 31,000  Level Denver Center
Tue 09:58:27 AM 41.9386 -106.6344 146° Southeast 435 501 31,000  Level Denver Center
Tue 09:59:29 AM 41.8422 -106.5469 146° Southeast 436 502 31,000  Level Denver Center
Tue 10:00:30 AM 41.7306 -106.4464 146° Southeast 434 499 31,000  Level Denver Center
Tue 10:01:31 AM 41.6508 -106.3733 146° Southeast 434 499 31,000 -49 Level Denver Center
Tue 10:02:33 AM 41.5364 -106.2692 146° Southeast 442 509 30,900 -629 Descending Denver Center
Tue 10:03:35 AM 41.4222 -106.1675 146° Southeast 444 511 29,700 -1,122 Descending Denver Center
Tue 10:04:36 AM 41.3244 -106.0806 146° Southeast 442 509 28,600 -1,171 Descending Denver Center
Tue 10:05:38 AM 41.2114 -105.9781 146° Southeast 441 507 27,300 -1,220 Descending Denver Center
Tue 10:06:39 AM 41.1186 -105.8964 146° Southeast 424 488 26,100 -1,171 Descending Denver Center
Tue 10:07:41 AM 41.0186 -105.8086 146° Southeast 390 449 24,900 -1,113 Descending Denver Center
Tue 10:08:43 AM 40.9358 -105.7353 146° Southeast 386 444 23,800 -1,073 Descending Denver Center
Tue 10:09:44 AM 40.8475 -105.6569 146° Southeast 383 441 22,700 -1,073 Descending Denver Center
Tue 10:10:46 AM 40.7628 -105.5828 146° Southeast 370 426 21,600 -1,065 Descending Denver Center
Tue 10:11:48 AM 40.6775 -105.5097 147° Southeast 365 420 20,500 -1,171 Descending Denver Center
Tue 10:12:49 AM 40.5872 -105.4078 139° Southeast 355 409 19,200 -1,122 Descending Denver Center
Tue 10:13:51 AM 40.5306 -105.3078 127° Southeast 345 397 18,200 -889 Descending Denver Center
Tue 10:15:04 AM 40.4833 -105.1983 120° Southeast 350 403 17,200 -1,103 Descending Denver Center
Tue 10:16:07 AM 40.4439 -105.0658 111° Southeast 315 362 15,700 -971 Descending Denver Center
Tue 10:17:20 AM 40.4175 -104.9744 111° Southeast 270 311 15,000 -794 Descending Denver Center
Tue 10:18:23 AM 40.3661 -104.8756 124° Southeast 269 310 13,900 -919 Descending Denver Center
Tue 10:19:24 AM 40.3022 -104.8131 143° Southeast 273 314 13,100 -976 Descending Denver Center
Tue 10:20:26 AM 40.2383 -104.7700 153° Southeast 261 300 11,900 -1,161 Descending Denver Center
Tue 10:21:28 AM 40.1767 -104.7294 153° Southeast 250 288 10,700 -1,210 Descending Denver Center
Tue 10:22:30 AM 40.1111 -104.6958 159° South 236 272 9,400 -1,210 Descending Denver Center
Tue 10:23:32 AM 40.0475 -104.6953 180° South 227 261 8,200 -1,161 Descending Denver Center
Tue 10:24:34 AM 39.9878 -104.6958 180° South 200 230 7,000 -968 Descending Denver Center
Tue 10:25:36 AM 39.9381 -104.6956 180° South 178 205 6,200 -726 Descending Denver Center
Tue 10:26:38 AM 39.8964 -104.6961 181° South 151 174 5,500 -677 Descending Denver Center

Login

Don't have an account? Register now (free) for customized features, flight alerts, and more!